createdAt,value
2022-08-20T00:00:41.212Z,5.20
2022-08-20T00:03:20.101Z,6.20
2022-08-20T00:05:56.752Z,4.97
2022-08-20T00:08:23.546Z,5.97
2022-08-20T00:10:55.567Z,4.93
2022-08-20T00:13:26.795Z,6.27
2022-08-20T00:15:53.747Z,5.57
2022-08-20T00:18:21.931Z,5.78
2022-08-20T00:20:51.808Z,5.05
2022-08-20T00:23:18.978Z,5.00
2022-08-20T00:25:47.002Z,5.87
2022-08-20T00:28:13.952Z,5.60
2022-08-20T00:30:42.861Z,4.88
2022-08-20T00:33:13.106Z,5.95
2022-08-20T00:35:43.593Z,7.15
2022-08-20T00:38:10.682Z,5.83
2022-08-20T00:40:46.333Z,6.03
2022-08-20T00:43:35.946Z,5.93
2022-08-20T00:46:07.021Z,5.72
2022-08-20T00:48:36.215Z,5.65
2022-08-20T00:51:27.247Z,5.47
2022-08-20T00:54:04.393Z,5.82
2022-08-20T00:56:34.013Z,6.88
2022-08-20T00:59:01.370Z,6.65
2022-08-20T01:01:28.754Z,5.88
2022-08-20T01:04:00.096Z,6.87
2022-08-20T01:06:27.629Z,6.93
2022-08-20T01:08:54.260Z,6.50
2022-08-20T01:11:37.161Z,5.82
2022-08-20T01:14:34.699Z,6.30
2022-08-20T01:17:06.233Z,6.47
2022-08-20T01:19:41.073Z,6.43
2022-08-20T01:22:28.307Z,6.45
2022-08-20T01:25:08.636Z,7.45
2022-08-20T01:27:35.535Z,6.05
2022-08-20T01:30:10.226Z,6.47
2022-08-20T01:32:36.905Z,6.68
2022-08-20T01:35:04.580Z,7.05
2022-08-20T01:37:31.724Z,6.80
2022-08-20T01:39:59.003Z,6.55
2022-08-20T01:42:58.612Z,6.90
2022-08-20T01:45:30.442Z,7.22
2022-08-20T01:47:58.245Z,6.72
2022-08-20T01:50:28.247Z,6.80
2022-08-20T01:53:04.572Z,7.25
2022-08-20T01:55:32.457Z,8.03
2022-08-20T01:58:00.286Z,8.63
2022-08-20T02:00:27.740Z,9.18
2022-08-20T02:02:54.396Z,8.30
2022-08-20T02:05:21.161Z,8.05
2022-08-20T02:07:47.825Z,8.93
2022-08-20T02:10:16.556Z,8.15
2022-08-20T02:12:43.549Z,8.50
2022-08-20T02:15:11.367Z,9.00
2022-08-20T02:17:39.626Z,7.88
2022-08-20T02:20:15.912Z,8.07
2022-08-20T02:22:51.857Z,8.07
2022-08-20T02:25:20.913Z,9.07
2022-08-20T02:27:51.883Z,8.70
2022-08-20T02:30:28.353Z,8.30
2022-08-20T02:32:56.591Z,9.30
2022-08-20T02:35:23.702Z,10.32
2022-08-20T02:37:50.834Z,8.52
2022-08-20T02:40:27.063Z,10.13
2022-08-20T02:42:57.842Z,9.48
2022-08-20T02:45:24.579Z,8.40
2022-08-20T02:47:56.782Z,8.15
2022-08-20T02:50:24.713Z,8.10
2022-08-20T02:52:52.228Z,7.07
2022-08-20T02:55:27.233Z,7.03
2022-08-20T02:58:00.382Z,5.93
2022-08-20T03:00:32.118Z,5.53
2022-08-20T03:03:06.736Z,5.72
2022-08-20T03:05:33.315Z,5.55
2022-08-20T03:08:00.240Z,6.03
2022-08-20T03:10:32.132Z,5.70
2022-08-20T03:13:02.237Z,5.05
2022-08-20T03:15:34.291Z,5.15
2022-08-20T03:18:01.230Z,5.60
2022-08-20T03:20:29.017Z,5.50
2022-08-20T03:22:56.021Z,5.23
2022-08-20T03:25:23.281Z,5.60
2022-08-20T03:27:54.366Z,6.25
2022-08-20T03:30:25.043Z,5.82
2022-08-20T03:32:53.585Z,6.25
2022-08-20T03:35:22.878Z,7.60
2022-08-20T03:37:52.346Z,6.78
2022-08-20T03:40:31.923Z,6.78
2022-08-20T03:42:59.321Z,8.50
2022-08-20T03:45:29.695Z,7.68
2022-08-20T03:47:56.500Z,9.13
2022-08-20T03:50:27.216Z,8.32
2022-08-20T03:52:55.184Z,7.57
2022-08-20T03:55:23.028Z,8.00
2022-08-20T03:57:53.253Z,9.27
2022-08-20T04:00:24.236Z,8.43
2022-08-20T04:02:50.769Z,8.80
2022-08-20T04:05:17.573Z,7.85
2022-08-20T04:07:44.882Z,8.27
2022-08-20T04:10:13.900Z,7.32
2022-08-20T04:12:52.792Z,6.73
2022-08-20T04:15:20.757Z,7.18
2022-08-20T04:17:51.451Z,6.75
2022-08-20T04:20:22.838Z,6.53
2022-08-20T04:22:59.139Z,7.03
2022-08-20T04:25:29.698Z,5.40
2022-08-20T04:28:00.337Z,6.88
2022-08-20T04:30:28.550Z,5.95
2022-08-20T04:32:56.156Z,7.03
2022-08-20T04:35:24.946Z,7.00
2022-08-20T04:38:00.059Z,7.37
2022-08-20T04:40:45.597Z,8.57
2022-08-20T04:43:12.423Z,7.70
2022-08-20T04:45:39.931Z,7.82
2022-08-20T04:48:11.705Z,7.13
2022-08-20T04:50:43.728Z,7.10
2022-08-20T04:53:12.926Z,8.10
2022-08-20T04:55:43.067Z,7.05
2022-08-20T04:58:19.849Z,7.30
2022-08-20T05:00:51.984Z,6.78
2022-08-20T05:03:19.664Z,8.23
2022-08-20T05:05:47.221Z,7.75
2022-08-20T05:08:19.802Z,8.98
2022-08-20T05:10:47.486Z,8.65
2022-08-20T05:13:14.165Z,8.43
2022-08-20T05:15:41.064Z,8.87
2022-08-20T05:18:09.006Z,8.45
2022-08-20T05:20:40.555Z,8.18
2022-08-20T05:23:10.112Z,8.13
2022-08-20T05:25:38.249Z,9.57
2022-08-20T05:28:12.586Z,9.37
2022-08-20T05:30:45.824Z,9.43
2022-08-20T05:33:20.405Z,9.48
2022-08-20T05:35:49.365Z,8.85
2022-08-20T05:38:19.388Z,9.35
2022-08-20T05:40:46.513Z,9.30
2022-08-20T05:43:18.373Z,8.75
2022-08-20T05:46:00.582Z,10.13
2022-08-20T05:48:29.061Z,10.05
2022-08-20T05:50:58.534Z,10.73
2022-08-20T05:53:25.843Z,9.70
2022-08-20T05:56:03.817Z,11.55
2022-08-20T05:58:40.226Z,10.30
2022-08-20T06:01:08.243Z,11.85
2022-08-20T06:03:53.888Z,12.02
2022-08-20T06:09:02.501Z,15.82
2022-08-20T06:11:36.841Z,16.35
2022-08-20T06:14:06.880Z,15.63
2022-08-20T06:16:34.633Z,16.60
2022-08-20T06:19:05.819Z,16.30
2022-08-20T06:21:32.512Z,17.00
2022-08-20T06:24:01.877Z,17.75
2022-08-20T06:26:30.707Z,18.13
2022-08-20T06:29:00.335Z,19.67
2022-08-20T06:31:27.665Z,18.30
2022-08-20T06:33:54.937Z,20.15
2022-08-20T06:36:22.089Z,19.83
2022-08-20T06:38:48.988Z,19.40
2022-08-20T06:41:16.801Z,17.75
2022-08-20T06:43:43.546Z,17.80
2022-08-20T06:46:11.008Z,17.98
2022-08-20T06:48:38.198Z,19.80
2022-08-20T06:51:06.721Z,17.10
2022-08-20T06:53:33.876Z,17.80
2022-08-20T06:56:00.586Z,16.33
2022-08-20T06:58:36.325Z,14.10
2022-08-20T07:01:10.209Z,12.23
2022-08-20T07:03:55.096Z,12.43
2022-08-20T07:06:25.020Z,10.57
2022-08-20T07:08:51.763Z,10.23
2022-08-20T07:11:18.323Z,8.80
2022-08-20T07:13:45.428Z,7.05
2022-08-20T07:16:12.348Z,6.22
2022-08-20T07:18:38.881Z,4.90
2022-08-20T07:21:06.022Z,4.43
2022-08-20T07:23:33.231Z,4.68
2022-08-20T07:25:59.811Z,3.90
2022-08-20T07:28:32.028Z,3.78
2022-08-20T07:31:17.146Z,3.78
2022-08-20T07:33:47.047Z,3.33
2022-08-20T07:36:17.797Z,3.42
2022-08-20T07:38:46.994Z,3.42
2022-08-20T07:41:14.959Z,2.90
2022-08-20T07:43:45.639Z,3.28
2022-08-20T07:46:15.306Z,3.47
2022-08-20T07:48:46.337Z,3.15
2022-08-20T07:51:17.089Z,2.75
2022-08-20T07:53:45.726Z,2.38
2022-08-20T07:56:15.446Z,2.50
2022-08-20T07:58:49.745Z,2.87
2022-08-20T08:01:20.043Z,2.63
2022-08-20T08:03:49.917Z,2.20
2022-08-20T08:06:29.163Z,2.50
2022-08-20T08:09:10.031Z,2.45
2022-08-20T08:11:40.022Z,2.20
2022-08-20T08:14:09.564Z,2.53
2022-08-20T08:16:37.779Z,3.10
2022-08-20T08:19:08.997Z,3.03
2022-08-20T08:21:35.654Z,2.83
2022-08-20T08:24:02.607Z,2.27
2022-08-20T08:26:29.449Z,2.33
2022-08-20T08:28:58.091Z,3.17
2022-08-20T08:31:26.086Z,3.33
2022-08-20T08:33:52.717Z,3.03
2022-08-20T08:36:19.393Z,2.80
2022-08-20T08:38:46.473Z,2.58
2022-08-20T08:41:18.326Z,2.97
2022-08-20T08:43:48.081Z,3.10
2022-08-20T08:46:18.794Z,2.20
2022-08-20T08:48:48.359Z,2.73
2022-08-20T08:51:26.837Z,2.90
2022-08-20T08:53:54.818Z,2.40
2022-08-20T08:56:28.577Z,2.13
2022-08-20T08:59:08.539Z,2.20
2022-08-20T09:01:54.185Z,2.00
2022-08-20T09:04:23.442Z,2.25
2022-08-20T09:06:54.619Z,2.33
2022-08-20T09:09:35.566Z,2.00
2022-08-20T09:12:08.671Z,2.25
2022-08-20T09:14:35.979Z,1.77
2022-08-20T09:17:03.596Z,2.00
2022-08-20T09:19:30.313Z,2.05
2022-08-20T09:21:57.288Z,2.10
2022-08-20T09:24:24.161Z,2.00
2022-08-20T09:26:50.920Z,1.60
2022-08-20T09:29:18.092Z,1.67
2022-08-20T09:31:45.205Z,1.90
2022-08-20T09:34:13.179Z,1.40
2022-08-20T09:36:39.749Z,1.90
2022-08-20T09:39:06.450Z,2.50
2022-08-20T09:41:33.817Z,1.75
2022-08-20T09:44:01.573Z,1.77
2022-08-20T09:46:28.109Z,2.85
2022-08-20T09:48:55.483Z,1.80
2022-08-20T09:51:23.003Z,1.90
2022-08-20T09:53:50.165Z,1.50
2022-08-20T09:56:17.505Z,2.10
2022-08-20T09:58:51.286Z,1.88
2022-08-20T10:01:21.900Z,1.50
2022-08-20T10:03:49.485Z,1.87
2022-08-20T10:06:17.933Z,1.80
2022-08-20T10:08:44.700Z,1.63
2022-08-20T10:11:11.625Z,1.63
2022-08-20T10:13:38.186Z,1.55
2022-08-20T10:16:05.324Z,1.73
2022-08-20T10:18:31.865Z,1.75
2022-08-20T10:20:58.579Z,1.73
2022-08-20T10:23:25.320Z,2.33
2022-08-20T10:25:51.878Z,2.20
2022-08-20T10:28:18.472Z,2.00
2022-08-20T10:30:45.305Z,2.00
2022-08-20T10:33:11.836Z,2.17
2022-08-20T10:35:38.376Z,1.35
2022-08-20T10:38:04.919Z,1.85
2022-08-20T10:40:31.552Z,1.90
2022-08-20T10:42:58.102Z,1.77
2022-08-20T10:45:26.198Z,2.10
2022-08-20T10:47:52.993Z,1.73
2022-08-20T10:50:20.103Z,1.80
2022-08-20T10:52:47.298Z,1.90
2022-08-20T10:55:14.025Z,1.60
2022-08-20T10:57:41.629Z,2.10
2022-08-20T11:00:12.895Z,2.10
2022-08-20T11:02:39.775Z,1.70
2022-08-20T11:05:08.287Z,1.90
2022-08-20T11:07:50.695Z,1.80
2022-08-20T11:10:25.499Z,1.73
2022-08-20T11:12:52.252Z,1.55
2022-08-20T11:15:18.855Z,2.40
2022-08-20T11:17:45.717Z,2.10
2022-08-20T11:20:14.870Z,1.80
2022-08-20T11:22:41.507Z,2.08
2022-08-20T11:25:09.294Z,1.70
2022-08-20T11:27:39.142Z,1.90
2022-08-20T11:30:09.858Z,1.77
2022-08-20T11:32:36.746Z,2.00
2022-08-20T11:35:19.127Z,1.98
2022-08-20T11:37:52.266Z,1.70
2022-08-20T11:40:19.427Z,1.85
2022-08-20T11:43:12.631Z,1.70
2022-08-20T11:45:37.610Z,2.05
2022-08-20T11:48:05.149Z,1.80
2022-08-20T11:50:31.789Z,2.17
2022-08-20T11:52:58.563Z,1.58
2022-08-20T11:55:28.620Z,1.50
2022-08-20T11:57:59.914Z,1.98
2022-08-20T12:00:31.705Z,1.83
2022-08-20T12:03:00.553Z,1.50
2022-08-20T12:05:29.470Z,1.10
2022-08-20T12:07:56.534Z,1.70
2022-08-20T12:10:24.529Z,2.03
2022-08-20T12:12:51.165Z,1.70
2022-08-20T12:15:19.279Z,1.70
2022-08-20T12:17:45.949Z,1.83
2022-08-20T12:20:14.740Z,1.60
2022-08-20T12:22:42.165Z,1.45
2022-08-20T12:25:09.285Z,1.40
2022-08-20T12:27:37.856Z,1.40
2022-08-20T12:30:08.476Z,1.58
2022-08-20T12:32:35.639Z,1.07
2022-08-20T12:35:02.880Z,1.23
2022-08-20T12:37:31.805Z,1.15
2022-08-20T12:40:01.809Z,1.55
2022-08-20T12:42:32.202Z,1.38
2022-08-20T12:44:59.690Z,1.80
2022-08-20T12:47:29.544Z,1.38
2022-08-20T12:50:05.317Z,1.48
2022-08-20T12:52:33.530Z,1.73
2022-08-20T12:55:00.352Z,1.40
2022-08-20T12:57:33.518Z,1.50
2022-08-20T13:00:04.940Z,1.40
2022-08-20T13:02:31.819Z,1.98
2022-08-20T13:05:04.314Z,1.42
2022-08-20T13:07:33.241Z,1.30
2022-08-20T13:10:01.030Z,2.13
2022-08-20T13:12:28.237Z,1.50
2022-08-20T13:14:54.886Z,1.10
2022-08-20T13:17:33.614Z,1.45
2022-08-20T13:20:12.721Z,1.50
2022-08-20T13:22:40.589Z,1.70
2022-08-20T13:25:08.871Z,1.17
2022-08-20T13:27:41.732Z,1.35
2022-08-20T13:30:12.028Z,1.33
2022-08-20T13:32:38.833Z,1.50
2022-08-20T13:35:05.890Z,1.60
2022-08-20T13:37:32.641Z,1.25
2022-08-20T13:40:02.437Z,1.23
2022-08-20T13:42:29.090Z,1.48
2022-08-20T13:44:55.730Z,1.63
2022-08-20T13:47:28.183Z,1.50
2022-08-20T13:50:05.378Z,1.30
2022-08-20T13:52:32.908Z,1.35
2022-08-20T13:55:09.939Z,1.35
2022-08-20T13:57:36.537Z,1.67
2022-08-20T14:00:06.830Z,1.23
2022-08-20T14:02:33.520Z,1.90
2022-08-20T14:05:00.197Z,1.67
2022-08-20T14:07:32.555Z,1.42
2022-08-20T14:10:11.969Z,1.40
2022-08-20T14:12:38.563Z,1.30
2022-08-20T14:15:06.434Z,2.30
2022-08-20T14:17:36.649Z,1.10
2022-08-20T14:20:10.707Z,1.08
2022-08-20T14:22:37.423Z,1.00
2022-08-20T14:25:06.091Z,1.13
2022-08-20T14:27:34.046Z,0.93
2022-08-20T14:30:01.929Z,1.40
2022-08-20T14:32:29.064Z,1.00
2022-08-20T14:34:57.160Z,1.30
2022-08-20T14:37:28.502Z,1.20
2022-08-20T14:39:58.405Z,1.10
2022-08-20T14:42:28.099Z,1.35
2022-08-20T14:44:56.178Z,1.30
2022-08-20T14:47:27.791Z,1.45
2022-08-20T14:49:56.257Z,1.20
2022-08-20T14:52:24.329Z,1.30
2022-08-20T14:54:54.843Z,1.05
2022-08-20T14:57:22.141Z,1.10
2022-08-20T14:59:52.139Z,1.40
2022-08-20T15:02:19.127Z,0.70
2022-08-20T15:04:48.780Z,1.17
2022-08-20T15:07:33.659Z,1.10
2022-08-20T15:10:01.753Z,1.05
2022-08-20T15:12:29.339Z,1.35
2022-08-20T15:14:56.572Z,1.40
2022-08-20T15:17:29.109Z,1.48
2022-08-20T15:19:56.373Z,1.10
2022-08-20T15:22:24.444Z,1.30
2022-08-20T15:24:51.515Z,1.20
2022-08-20T15:27:24.966Z,1.20
2022-08-20T15:29:54.446Z,1.30
2022-08-20T15:32:21.466Z,1.20
2022-08-20T15:34:48.956Z,1.10
2022-08-20T15:37:21.501Z,1.05
2022-08-20T15:39:49.511Z,1.60
2022-08-20T15:42:17.661Z,1.20
2022-08-20T15:44:44.796Z,1.02
2022-08-20T15:47:29.675Z,1.20
2022-08-20T15:50:14.966Z,1.10
2022-08-20T15:52:43.676Z,1.10
2022-08-20T15:55:16.311Z,1.17
2022-08-20T15:58:18.367Z,1.48
2022-08-20T16:01:15.359Z,1.10
2022-08-20T16:04:16.725Z,1.30
2022-08-20T16:06:45.669Z,1.33
2022-08-20T16:09:49.355Z,1.30
2022-08-20T16:12:35.991Z,1.48
2022-08-20T16:15:09.528Z,1.63
2022-08-20T16:17:43.975Z,1.58
2022-08-20T16:20:22.236Z,1.70
2022-08-20T16:22:49.843Z,1.55
2022-08-20T16:25:22.899Z,1.33
2022-08-20T16:28:14.937Z,1.33
2022-08-20T16:30:51.119Z,1.30
2022-08-20T16:33:42.063Z,1.30
2022-08-20T16:36:23.685Z,1.50
2022-08-20T16:39:02.606Z,1.25
2022-08-20T16:41:34.838Z,1.13
2022-08-20T16:44:12.892Z,1.40
2022-08-20T16:46:49.324Z,1.10
2022-08-20T16:49:16.118Z,1.02
2022-08-20T16:51:52.334Z,1.33
2022-08-20T16:54:28.524Z,1.20
2022-08-20T16:57:04.541Z,1.30
2022-08-20T16:59:32.196Z,1.37
2022-08-20T17:02:10.403Z,1.23
2022-08-20T17:04:59.333Z,1.73
2022-08-20T17:07:57.302Z,1.58
2022-08-20T17:10:29.719Z,1.30
2022-08-20T17:12:59.952Z,1.60
2022-08-20T17:15:35.247Z,1.67
2022-08-20T17:18:28.420Z,1.20
2022-08-20T17:21:01.953Z,1.50
2022-08-20T17:23:30.791Z,1.83
2022-08-20T17:26:04.490Z,1.40
2022-08-20T17:28:35.167Z,1.30
2022-08-20T17:31:02.191Z,1.38
2022-08-20T17:33:33.256Z,1.30
2022-08-20T17:36:17.479Z,1.52
2022-08-20T17:38:58.990Z,2.23
2022-08-20T17:41:35.735Z,1.50
2022-08-20T17:44:21.077Z,1.13
2022-08-20T17:46:49.589Z,1.52
2022-08-20T17:49:32.945Z,1.52
2022-08-20T17:52:02.635Z,1.33
2022-08-20T17:54:39.273Z,1.15
2022-08-20T17:57:12.676Z,1.48
2022-08-20T18:00:00.723Z,1.23
2022-08-20T18:02:29.815Z,2.05
2022-08-20T18:04:56.700Z,1.30
2022-08-20T18:07:26.433Z,1.40
2022-08-20T18:10:14.092Z,1.40
2022-08-20T18:12:58.146Z,2.15
2022-08-20T18:15:29.495Z,1.33
2022-08-20T18:18:27.859Z,1.30
2022-08-20T18:20:54.370Z,1.42
2022-08-20T18:23:28.574Z,1.67
2022-08-20T18:26:02.673Z,1.50
2022-08-20T18:28:43.792Z,1.15
2022-08-20T18:31:26.185Z,1.30
2022-08-20T18:33:53.285Z,2.05
2022-08-20T18:36:19.737Z,1.55
2022-08-20T18:39:05.890Z,1.50
2022-08-20T18:41:41.498Z,1.65
2022-08-20T18:44:13.619Z,1.43
2022-08-20T18:47:01.076Z,1.88
2022-08-20T18:49:39.982Z,1.70
2022-08-20T18:52:13.493Z,1.80
2022-08-20T18:54:52.062Z,1.67
2022-08-20T18:57:40.728Z,2.20
2022-08-20T19:00:14.533Z,1.70
2022-08-20T19:03:09.732Z,1.55
2022-08-20T19:05:45.310Z,1.83
2022-08-20T19:08:24.826Z,1.60
2022-08-20T19:10:51.493Z,1.70
2022-08-20T19:13:39.216Z,1.92
2022-08-20T19:16:18.767Z,1.50
2022-08-20T19:18:54.167Z,1.60
2022-08-20T19:21:26.370Z,1.90
2022-08-20T19:23:57.162Z,2.00
2022-08-20T19:26:27.677Z,1.70
2022-08-20T19:28:59.134Z,1.80
2022-08-20T19:31:31.587Z,2.30
2022-08-20T19:34:20.233Z,2.45
2022-08-20T19:37:27.624Z,2.00
2022-08-20T19:39:50.894Z,2.30
2022-08-20T19:42:25.172Z,2.15
2022-08-20T19:44:56.789Z,2.65
2022-08-20T19:47:31.648Z,2.22
2022-08-20T19:50:13.494Z,2.10
2022-08-20T19:52:56.571Z,2.65
2022-08-20T19:55:30.679Z,1.80
2022-08-20T19:58:04.552Z,2.65
2022-08-20T20:00:41.079Z,2.45
2022-08-20T20:03:14.168Z,2.20
2022-08-20T20:05:54.414Z,3.00
2022-08-20T20:08:22.798Z,3.13
2022-08-20T20:10:58.810Z,2.95
2022-08-20T20:13:29.692Z,3.22
2022-08-20T20:16:03.625Z,2.70
2022-08-20T20:18:35.370Z,2.97
2022-08-20T20:21:24.173Z,2.75
2022-08-20T20:23:54.994Z,2.60
2022-08-20T20:26:21.732Z,3.00
2022-08-20T20:28:54.583Z,3.43
2022-08-20T20:31:28.011Z,4.40
2022-08-20T20:33:58.404Z,5.72
2022-08-20T20:36:39.445Z,6.50
2022-08-20T20:39:30.913Z,3.10
2022-08-20T20:41:59.751Z,2.77
2022-08-20T20:44:38.578Z,2.53
2022-08-20T20:47:08.238Z,2.80
2022-08-20T20:49:54.287Z,3.17
2022-08-20T20:52:31.075Z,3.28
2022-08-20T20:55:09.955Z,3.43
2022-08-20T20:57:38.522Z,3.40
2022-08-20T21:00:11.223Z,2.90
2022-08-20T21:02:38.109Z,3.67
2022-08-20T21:05:05.326Z,2.80
2022-08-20T21:07:32.120Z,2.40
2022-08-20T21:09:59.118Z,2.80
2022-08-20T21:12:25.821Z,2.30
2022-08-20T21:14:52.450Z,2.33
2022-08-20T21:17:22.824Z,2.33
2022-08-20T21:19:51.153Z,2.10
2022-08-20T21:22:19.586Z,2.45
2022-08-20T21:24:48.490Z,2.53
2022-08-20T21:27:15.858Z,2.65
2022-08-20T21:29:42.451Z,2.10
2022-08-20T21:32:09.419Z,1.97
2022-08-20T21:34:39.547Z,2.50
2022-08-20T21:37:06.217Z,2.47
2022-08-20T21:39:32.848Z,2.63
2022-08-20T21:42:02.361Z,2.00
2022-08-20T21:44:31.758Z,2.20
2022-08-20T21:46:59.632Z,2.40
2022-08-20T21:49:28.504Z,2.60
2022-08-20T21:51:55.828Z,2.42
2022-08-20T21:54:24.455Z,2.90
2022-08-20T21:56:56.471Z,1.90
2022-08-20T21:59:24.678Z,2.25
2022-08-20T22:01:51.915Z,2.47
2022-08-20T22:04:18.762Z,2.50
2022-08-20T22:06:46.112Z,2.45
2022-08-20T22:09:13.665Z,2.53
2022-08-20T22:11:40.763Z,2.72
2022-08-20T22:14:10.258Z,2.13
2022-08-20T22:16:37.196Z,2.10
2022-08-20T22:19:15.359Z,2.45
2022-08-20T22:21:42.638Z,2.10
2022-08-20T22:24:10.554Z,2.38
2022-08-20T22:26:39.048Z,2.42
2022-08-20T22:29:08.638Z,2.38
2022-08-20T22:31:37.828Z,2.58
2022-08-20T22:34:05.527Z,2.10
2022-08-20T22:36:33.212Z,2.00
2022-08-20T22:39:00.185Z,3.17
2022-08-20T22:41:27.059Z,2.35
2022-08-20T22:43:56.970Z,2.50
2022-08-20T22:46:30.510Z,2.30
2022-08-20T22:48:57.378Z,2.47
2022-08-20T22:51:31.012Z,2.35
2022-08-20T22:53:59.210Z,2.30
2022-08-20T22:56:26.819Z,2.10
2022-08-20T22:58:59.081Z,2.37
2022-08-20T23:01:27.233Z,1.88
2022-08-20T23:03:55.406Z,2.10
2022-08-20T23:06:23.364Z,2.15
2022-08-20T23:08:50.101Z,2.17
2022-08-20T23:11:16.860Z,1.40
2022-08-20T23:13:44.452Z,2.30
2022-08-20T23:16:11.117Z,2.20
2022-08-20T23:18:37.729Z,1.92
2022-08-20T23:21:04.351Z,2.22
2022-08-20T23:23:31.227Z,2.00
2022-08-20T23:25:58.292Z,2.20
2022-08-20T23:28:26.111Z,2.03
2022-08-20T23:30:53.229Z,2.00
2022-08-20T23:33:21.320Z,2.05
2022-08-20T23:35:48.368Z,1.67
2022-08-20T23:38:15.240Z,2.53
2022-08-20T23:40:42.628Z,2.00
2022-08-20T23:43:09.336Z,2.42
2022-08-20T23:45:39.686Z,1.90
2022-08-20T23:48:07.871Z,1.90
2022-08-20T23:50:34.676Z,2.58
2022-08-20T23:53:01.571Z,2.35
2022-08-20T23:55:28.180Z,2.83
2022-08-20T23:57:54.873Z,2.65
